sensor_id;sensor_type;location;lat;lon;timestamp;temperature;humidity
11650;DHT22;5881;48.522;7.682;2023-04-25T00:02:00;9.30;1.00
11650;DHT22;5881;48.522;7.682;2023-04-25T00:04:27;9.20;1.00
11650;DHT22;5881;48.522;7.682;2023-04-25T00:06:53;9.20;1.00
11650;DHT22;5881;48.522;7.682;2023-04-25T00:09:19;9.10;1.00
11650;DHT22;5881;48.522;7.682;2023-04-25T00:11:45;9.00;1.00
11650;DHT22;5881;48.522;7.682;2023-04-25T00:14:10;9.00;1.00
11650;DHT22;5881;48.522;7.682;2023-04-25T00:16:36;9.00;1.00
11650;DHT22;5881;48.522;7.682;2023-04-25T00:19:02;9.00;1.00
11650;DHT22;5881;48.522;7.682;2023-04-25T00:21:28;9.00;1.00
11650;DHT22;5881;48.522;7.682;2023-04-25T00:23:54;9.00;1.00
11650;DHT22;5881;48.522;7.682;2023-04-25T00:26:20;8.80;1.00
11650;DHT22;5881;48.522;7.682;2023-04-25T00:28:48;8.90;1.00
11650;DHT22;5881;48.522;7.682;2023-04-25T00:31:14;8.90;1.00
11650;DHT22;5881;48.522;7.682;2023-04-25T00:33:40;8.80;1.00
11650;DHT22;5881;48.522;7.682;2023-04-25T00:36:06;8.80;1.00
11650;DHT22;5881;48.522;7.682;2023-04-25T00:38:32;8.80;1.00
11650;DHT22;5881;48.522;7.682;2023-04-25T00:40:57;8.80;1.00
11650;DHT22;5881;48.522;7.682;2023-04-25T00:43:26;8.80;1.00
11650;DHT22;5881;48.522;7.682;2023-04-25T00:45:52;8.70;1.00
11650;DHT22;5881;48.522;7.682;2023-04-25T00:48:19;8.80;4.60
11650;DHT22;5881;48.522;7.682;2023-04-25T00:50:52;8.90;1.00
11650;DHT22;5881;48.522;7.682;2023-04-25T00:53:19;8.90;1.00
11650;DHT22;5881;48.522;7.682;2023-04-25T00:55:45;9.00;1.00
11650;DHT22;5881;48.522;7.682;2023-04-25T00:58:10;9.10;1.00
11650;DHT22;5881;48.522;7.682;2023-04-25T01:00:36;9.10;1.00
11650;DHT22;5881;48.522;7.682;2023-04-25T01:03:03;9.10;1.00
11650;DHT22;5881;48.522;7.682;2023-04-25T01:05:29;9.10;1.00
11650;DHT22;5881;48.522;7.682;2023-04-25T01:07:55;9.10;1.00
11650;DHT22;5881;48.522;7.682;2023-04-25T01:10:21;9.20;1.00
11650;DHT22;5881;48.522;7.682;2023-04-25T01:12:47;9.20;1.00
11650;DHT22;5881;48.522;7.682;2023-04-25T01:15:12;9.10;1.00
11650;DHT22;5881;48.522;7.682;2023-04-25T01:17:38;9.20;1.00
11650;DHT22;5881;48.522;7.682;2023-04-25T01:20:07;9.20;1.00
11650;DHT22;5881;48.522;7.682;2023-04-25T01:22:35;9.20;1.00
11650;DHT22;5881;48.522;7.682;2023-04-25T01:25:00;9.10;1.00
11650;DHT22;5881;48.522;7.682;2023-04-25T01:27:27;9.10;1.00
11650;DHT22;5881;48.522;7.682;2023-04-25T01:29:54;9.10;1.00
11650;DHT22;5881;48.522;7.682;2023-04-25T01:32:22;9.10;1.00
11650;DHT22;5881;48.522;7.682;2023-04-25T01:34:48;9.00;1.00
11650;DHT22;5881;48.522;7.682;2023-04-25T01:37:13;9.00;1.00
11650;DHT22;5881;48.522;7.682;2023-04-25T01:39:39;8.90;1.00
11650;DHT22;5881;48.522;7.682;2023-04-25T01:42:05;9.00;1.00
11650;DHT22;5881;48.522;7.682;2023-04-25T01:44:30;8.90;1.00
11650;DHT22;5881;48.522;7.682;2023-04-25T01:46:56;8.80;1.00
11650;DHT22;5881;48.522;7.682;2023-04-25T01:49:21;8.80;1.00
11650;DHT22;5881;48.522;7.682;2023-04-25T01:51:47;8.70;6.50
11650;DHT22;5881;48.522;7.682;2023-04-25T01:54:13;8.70;16.20
11650;DHT22;5881;48.522;7.682;2023-04-25T01:56:39;8.60;19.90
11650;DHT22;5881;48.522;7.682;2023-04-25T01:59:05;8.60;25.20
11650;DHT22;5881;48.522;7.682;2023-04-25T02:01:32;8.50;48.80
11650;DHT22;5881;48.522;7.682;2023-04-25T02:03:57;8.60;99.90
11650;DHT22;5881;48.522;7.682;2023-04-25T02:06:23;8.60;99.90
11650;DHT22;5881;48.522;7.682;2023-04-25T02:08:49;8.50;99.90
11650;DHT22;5881;48.522;7.682;2023-04-25T02:11:14;8.50;99.90
11650;DHT22;5881;48.522;7.682;2023-04-25T02:13:40;8.50;99.90
11650;DHT22;5881;48.522;7.682;2023-04-25T02:16:06;8.60;99.90
11650;DHT22;5881;48.522;7.682;2023-04-25T02:18:31;8.60;99.90
11650;DHT22;5881;48.522;7.682;2023-04-25T02:20:59;8.60;99.90
11650;DHT22;5881;48.522;7.682;2023-04-25T02:23:25;8.60;99.90
11650;DHT22;5881;48.522;7.682;2023-04-25T02:25:50;8.80;99.90
11650;DHT22;5881;48.522;7.682;2023-04-25T02:28:17;8.80;99.90
11650;DHT22;5881;48.522;7.682;2023-04-25T02:30:42;8.80;99.90
11650;DHT22;5881;48.522;7.682;2023-04-25T02:33:08;8.90;99.90
11650;DHT22;5881;48.522;7.682;2023-04-25T02:35:34;8.90;99.90
11650;DHT22;5881;48.522;7.682;2023-04-25T02:37:59;9.00;99.90
11650;DHT22;5881;48.522;7.682;2023-04-25T02:40:25;9.00;99.90
11650;DHT22;5881;48.522;7.682;2023-04-25T02:42:50;9.00;99.90
11650;DHT22;5881;48.522;7.682;2023-04-25T02:45:16;8.90;99.90
11650;DHT22;5881;48.522;7.682;2023-04-25T02:47:42;8.90;99.90
11650;DHT22;5881;48.522;7.682;2023-04-25T02:50:08;8.90;99.90
11650;DHT22;5881;48.522;7.682;2023-04-25T02:52:33;8.90;99.90
11650;DHT22;5881;48.522;7.682;2023-04-25T02:54:59;9.00;99.90
11650;DHT22;5881;48.522;7.682;2023-04-25T02:57:25;8.90;99.90
11650;DHT22;5881;48.522;7.682;2023-04-25T02:59:50;8.90;99.90
11650;DHT22;5881;48.522;7.682;2023-04-25T03:02:16;8.90;99.90
11650;DHT22;5881;48.522;7.682;2023-04-25T03:04:41;8.80;99.90
11650;DHT22;5881;48.522;7.682;2023-04-25T03:07:07;8.80;99.90
11650;DHT22;5881;48.522;7.682;2023-04-25T03:09:33;8.80;99.90
11650;DHT22;5881;48.522;7.682;2023-04-25T03:11:58;8.70;99.90
11650;DHT22;5881;48.522;7.682;2023-04-25T03:14:24;8.70;99.90
11650;DHT22;5881;48.522;7.682;2023-04-25T03:16:49;8.70;99.90
11650;DHT22;5881;48.522;7.682;2023-04-25T03:19:15;8.70;99.90
11650;DHT22;5881;48.522;7.682;2023-04-25T03:21:44;8.80;99.90
11650;DHT22;5881;48.522;7.682;2023-04-25T03:24:10;8.80;99.90
11650;DHT22;5881;48.522;7.682;2023-04-25T03:26:36;8.80;99.90
11650;DHT22;5881;48.522;7.682;2023-04-25T03:29:02;8.80;99.90
11650;DHT22;5881;48.522;7.682;2023-04-25T03:31:28;8.80;99.90
11650;DHT22;5881;48.522;7.682;2023-04-25T03:33:53;8.70;99.90
11650;DHT22;5881;48.522;7.682;2023-04-25T03:36:19;8.70;99.90
11650;DHT22;5881;48.522;7.682;2023-04-25T03:38:44;8.70;99.90
11650;DHT22;5881;48.522;7.682;2023-04-25T03:41:10;8.60;99.90
11650;DHT22;5881;48.522;7.682;2023-04-25T03:43:36;8.70;99.90
11650;DHT22;5881;48.522;7.682;2023-04-25T03:46:01;8.60;99.90
11650;DHT22;5881;48.522;7.682;2023-04-25T03:48:27;8.60;99.90
11650;DHT22;5881;48.522;7.682;2023-04-25T03:50:54;8.60;99.90
11650;DHT22;5881;48.522;7.682;2023-04-25T03:53:20;8.50;99.90
11650;DHT22;5881;48.522;7.682;2023-04-25T03:55:45;8.40;99.90
11650;DHT22;5881;48.522;7.682;2023-04-25T03:58:11;8.30;1.00
11650;DHT22;5881;48.522;7.682;2023-04-25T04:00:37;8.30;1.00
11650;DHT22;5881;48.522;7.682;2023-04-25T04:03:03;8.40;1.00
11650;DHT22;5881;48.522;7.682;2023-04-25T04:05:28;8.40;1.00
11650;DHT22;5881;48.522;7.682;2023-04-25T04:07:54;8.40;1.00
11650;DHT22;5881;48.522;7.682;2023-04-25T04:10:20;8.40;1.00
11650;DHT22;5881;48.522;7.682;2023-04-25T04:12:46;8.40;1.00
11650;DHT22;5881;48.522;7.682;2023-04-25T04:15:12;8.50;1.00
11650;DHT22;5881;48.522;7.682;2023-04-25T04:17:37;8.60;1.00
11650;DHT22;5881;48.522;7.682;2023-04-25T04:20:03;8.60;99.90
11650;DHT22;5881;48.522;7.682;2023-04-25T04:22:29;8.60;1.00
11650;DHT22;5881;48.522;7.682;2023-04-25T04:24:55;8.70;1.00
11650;DHT22;5881;48.522;7.682;2023-04-25T04:27:23;8.70;1.00
11650;DHT22;5881;48.522;7.682;2023-04-25T04:29:48;8.80;1.00
11650;DHT22;5881;48.522;7.682;2023-04-25T04:32:14;8.80;1.00
11650;DHT22;5881;48.522;7.682;2023-04-25T04:34:40;8.80;99.90
11650;DHT22;5881;48.522;7.682;2023-04-25T04:37:06;8.80;1.00
11650;DHT22;5881;48.522;7.682;2023-04-25T04:39:33;8.80;1.00
11650;DHT22;5881;48.522;7.682;2023-04-25T04:41:58;8.80;1.00
11650;DHT22;5881;48.522;7.682;2023-04-25T04:44:25;8.80;1.00
11650;DHT22;5881;48.522;7.682;2023-04-25T04:46:51;8.90;1.00
11650;DHT22;5881;48.522;7.682;2023-04-25T04:49:17;8.90;1.00
11650;DHT22;5881;48.522;7.682;2023-04-25T04:51:42;8.80;1.00
11650;DHT22;5881;48.522;7.682;2023-04-25T04:54:09;8.80;1.00
11650;DHT22;5881;48.522;7.682;2023-04-25T04:56:35;8.70;93.70
11650;DHT22;5881;48.522;7.682;2023-04-25T04:59:01;8.70;99.90
11650;DHT22;5881;48.522;7.682;2023-04-25T05:01:28;8.70;99.90
11650;DHT22;5881;48.522;7.682;2023-04-25T05:03:55;8.80;99.90
11650;DHT22;5881;48.522;7.682;2023-04-25T05:06:26;8.70;1.00
11650;DHT22;5881;48.522;7.682;2023-04-25T05:08:52;8.80;1.00
11650;DHT22;5881;48.522;7.682;2023-04-25T05:11:18;8.80;99.90
11650;DHT22;5881;48.522;7.682;2023-04-25T05:13:44;8.80;1.00
11650;DHT22;5881;48.522;7.682;2023-04-25T05:16:11;8.80;1.00
11650;DHT22;5881;48.522;7.682;2023-04-25T05:18:37;8.80;92.80
11650;DHT22;5881;48.522;7.682;2023-04-25T05:21:02;8.90;1.00
11650;DHT22;5881;48.522;7.682;2023-04-25T05:23:28;8.80;1.00
11650;DHT22;5881;48.522;7.682;2023-04-25T05:25:55;8.80;1.00
11650;DHT22;5881;48.522;7.682;2023-04-25T05:28:21;8.80;99.90
11650;DHT22;5881;48.522;7.682;2023-04-25T05:30:47;8.80;99.90
11650;DHT22;5881;48.522;7.682;2023-04-25T05:33:12;8.80;99.90
11650;DHT22;5881;48.522;7.682;2023-04-25T05:35:38;8.70;99.90
11650;DHT22;5881;48.522;7.682;2023-04-25T05:38:04;8.70;1.00
11650;DHT22;5881;48.522;7.682;2023-04-25T05:40:29;8.60;1.00
11650;DHT22;5881;48.522;7.682;2023-04-25T05:42:55;8.70;1.00
11650;DHT22;5881;48.522;7.682;2023-04-25T05:45:20;8.70;1.00
11650;DHT22;5881;48.522;7.682;2023-04-25T05:47:46;8.60;34.30
11650;DHT22;5881;48.522;7.682;2023-04-25T05:50:12;8.60;22.20
11650;DHT22;5881;48.522;7.682;2023-04-25T05:52:37;8.60;99.90
11650;DHT22;5881;48.522;7.682;2023-04-25T05:55:04;8.60;99.90
11650;DHT22;5881;48.522;7.682;2023-04-25T05:57:30;8.50;99.90
11650;DHT22;5881;48.522;7.682;2023-04-25T05:59:55;8.40;99.90
11650;DHT22;5881;48.522;7.682;2023-04-25T06:02:21;8.50;99.90
11650;DHT22;5881;48.522;7.682;2023-04-25T06:04:49;8.40;99.90
11650;DHT22;5881;48.522;7.682;2023-04-25T06:07:15;8.40;99.90
11650;DHT22;5881;48.522;7.682;2023-04-25T06:09:40;8.30;99.90
11650;DHT22;5881;48.522;7.682;2023-04-25T06:12:06;8.40;99.90
11650;DHT22;5881;48.522;7.682;2023-04-25T06:14:35;8.30;99.90
11650;DHT22;5881;48.522;7.682;2023-04-25T06:17:01;8.30;99.90
11650;DHT22;5881;48.522;7.682;2023-04-25T06:19:33;8.30;99.90
11650;DHT22;5881;48.522;7.682;2023-04-25T06:21:59;8.20;99.90
11650;DHT22;5881;48.522;7.682;2023-04-25T06:24:25;8.20;99.90
11650;DHT22;5881;48.522;7.682;2023-04-25T06:26:51;8.20;99.90
11650;DHT22;5881;48.522;7.682;2023-04-25T06:29:16;8.30;99.90
11650;DHT22;5881;48.522;7.682;2023-04-25T06:31:42;8.30;99.90
11650;DHT22;5881;48.522;7.682;2023-04-25T06:34:07;8.30;99.90
11650;DHT22;5881;48.522;7.682;2023-04-25T06:36:33;8.20;99.90
11650;DHT22;5881;48.522;7.682;2023-04-25T06:38:59;8.20;99.90
11650;DHT22;5881;48.522;7.682;2023-04-25T06:41:24;8.20;99.90
11650;DHT22;5881;48.522;7.682;2023-04-25T06:43:50;8.20;99.90
11650;DHT22;5881;48.522;7.682;2023-04-25T06:46:16;8.20;99.90
11650;DHT22;5881;48.522;7.682;2023-04-25T06:48:41;8.20;99.90
11650;DHT22;5881;48.522;7.682;2023-04-25T06:51:07;8.20;99.90
11650;DHT22;5881;48.522;7.682;2023-04-25T06:53:33;8.10;99.90
11650;DHT22;5881;48.522;7.682;2023-04-25T06:55:58;8.00;99.90
11650;DHT22;5881;48.522;7.682;2023-04-25T06:58:24;7.90;1.00
11650;DHT22;5881;48.522;7.682;2023-04-25T07:00:49;7.90;1.00
11650;DHT22;5881;48.522;7.682;2023-04-25T07:03:15;7.80;1.00
11650;DHT22;5881;48.522;7.682;2023-04-25T07:05:41;8.00;1.00
11650;DHT22;5881;48.522;7.682;2023-04-25T07:08:06;8.00;1.00
11650;DHT22;5881;48.522;7.682;2023-04-25T07:10:32;8.00;1.00
11650;DHT22;5881;48.522;7.682;2023-04-25T07:12:57;8.00;1.00
11650;DHT22;5881;48.522;7.682;2023-04-25T07:15:23;8.10;1.00
11650;DHT22;5881;48.522;7.682;2023-04-25T07:17:49;8.10;11.50
11650;DHT22;5881;48.522;7.682;2023-04-25T07:20:14;8.20;47.60
11650;DHT22;5881;48.522;7.682;2023-04-25T07:22:41;8.20;1.00
11650;DHT22;5881;48.522;7.682;2023-04-25T07:25:07;8.20;16.40
11650;DHT22;5881;48.522;7.682;2023-04-25T07:27:33;8.30;33.00
11650;DHT22;5881;48.522;7.682;2023-04-25T07:29:59;8.30;99.90
11650;DHT22;5881;48.522;7.682;2023-04-25T07:32:25;8.20;99.90
11650;DHT22;5881;48.522;7.682;2023-04-25T07:34:51;8.20;12.80
11650;DHT22;5881;48.522;7.682;2023-04-25T07:37:17;8.20;37.20
11650;DHT22;5881;48.522;7.682;2023-04-25T07:39:44;8.00;1.00
11650;DHT22;5881;48.522;7.682;2023-04-25T07:42:11;8.10;1.00
11650;DHT22;5881;48.522;7.682;2023-04-25T07:44:37;8.20;1.00
11650;DHT22;5881;48.522;7.682;2023-04-25T07:47:06;8.20;1.00
11650;DHT22;5881;48.522;7.682;2023-04-25T07:49:36;8.30;1.00
11650;DHT22;5881;48.522;7.682;2023-04-25T07:52:03;8.10;99.90
11650;DHT22;5881;48.522;7.682;2023-04-25T07:54:29;8.00;99.90
11650;DHT22;5881;48.522;7.682;2023-04-25T07:56:55;8.10;1.00
11650;DHT22;5881;48.522;7.682;2023-04-25T07:59:21;8.20;99.90
11650;DHT22;5881;48.522;7.682;2023-04-25T08:01:47;8.20;1.00
11650;DHT22;5881;48.522;7.682;2023-04-25T08:04:12;8.30;1.00
11650;DHT22;5881;48.522;7.682;2023-04-25T08:06:38;8.50;99.90
11650;DHT22;5881;48.522;7.682;2023-04-25T08:09:04;8.60;99.90
11650;DHT22;5881;48.522;7.682;2023-04-25T08:11:30;8.60;99.90
11650;DHT22;5881;48.522;7.682;2023-04-25T08:13:55;8.70;99.90
11650;DHT22;5881;48.522;7.682;2023-04-25T08:16:21;8.60;3.20
11650;DHT22;5881;48.522;7.682;2023-04-25T08:18:47;8.80;99.90
11650;DHT22;5881;48.522;7.682;2023-04-25T08:21:13;8.80;1.00
11650;DHT22;5881;48.522;7.682;2023-04-25T08:23:39;8.70;1.00
11650;DHT22;5881;48.522;7.682;2023-04-25T08:26:05;8.90;1.00
11650;DHT22;5881;48.522;7.682;2023-04-25T08:28:31;9.00;99.90
11650;DHT22;5881;48.522;7.682;2023-04-25T08:30:57;9.10;99.90
11650;DHT22;5881;48.522;7.682;2023-04-25T08:33:22;8.90;1.00
11650;DHT22;5881;48.522;7.682;2023-04-25T08:35:48;8.80;55.00
11650;DHT22;5881;48.522;7.682;2023-04-25T08:38:14;8.80;99.90
11650;DHT22;5881;48.522;7.682;2023-04-25T08:40:40;8.70;1.00
11650;DHT22;5881;48.522;7.682;2023-04-25T08:43:06;8.60;99.90
11650;DHT22;5881;48.522;7.682;2023-04-25T08:45:39;8.60;99.90
11650;DHT22;5881;48.522;7.682;2023-04-25T08:48:12;8.60;99.90
11650;DHT22;5881;48.522;7.682;2023-04-25T08:50:56;8.60;1.00
11650;DHT22;5881;48.522;7.682;2023-04-25T08:53:29;8.70;99.90
11650;DHT22;5881;48.522;7.682;2023-04-25T08:55:57;8.70;14.00
11650;DHT22;5881;48.522;7.682;2023-04-25T08:58:24;8.70;1.00
11650;DHT22;5881;48.522;7.682;2023-04-25T09:00:50;8.70;99.90
11650;DHT22;5881;48.522;7.682;2023-04-25T09:03:17;8.80;71.20
11650;DHT22;5881;48.522;7.682;2023-04-25T09:05:43;8.80;1.00
11650;DHT22;5881;48.522;7.682;2023-04-25T09:08:09;8.80;1.00
11650;DHT22;5881;48.522;7.682;2023-04-25T09:10:35;8.80;1.00
11650;DHT22;5881;48.522;7.682;2023-04-25T09:13:12;9.00;1.00
11650;DHT22;5881;48.522;7.682;2023-04-25T09:15:53;9.30;99.90
11650;DHT22;5881;48.522;7.682;2023-04-25T09:18:29;9.50;1.00
11650;DHT22;5881;48.522;7.682;2023-04-25T09:21:06;9.80;1.00
11650;DHT22;5881;48.522;7.682;2023-04-25T09:23:43;10.40;99.90
11650;DHT22;5881;48.522;7.682;2023-04-25T09:26:09;10.70;99.90
11650;DHT22;5881;48.522;7.682;2023-04-25T09:28:35;10.80;99.90
11650;DHT22;5881;48.522;7.682;2023-04-25T09:31:01;10.70;99.90
11650;DHT22;5881;48.522;7.682;2023-04-25T09:33:31;11.40;99.90
11650;DHT22;5881;48.522;7.682;2023-04-25T09:36:07;12.10;42.00
11650;DHT22;5881;48.522;7.682;2023-04-25T09:38:43;12.10;38.80
11650;DHT22;5881;48.522;7.682;2023-04-25T09:41:10;11.70;34.60
11650;DHT22;5881;48.522;7.682;2023-04-25T09:43:37;11.40;25.80
11650;DHT22;5881;48.522;7.682;2023-04-25T09:46:04;11.00;42.20
11650;DHT22;5881;48.522;7.682;2023-04-25T09:48:32;11.00;99.90
11650;DHT22;5881;48.522;7.682;2023-04-25T09:51:09;11.10;99.90
11650;DHT22;5881;48.522;7.682;2023-04-25T09:53:43;10.90;99.90
11650;DHT22;5881;48.522;7.682;2023-04-25T09:56:11;10.60;99.90
11650;DHT22;5881;48.522;7.682;2023-04-25T09:58:38;10.60;99.90
11650;DHT22;5881;48.522;7.682;2023-04-25T10:01:06;10.50;99.90
11650;DHT22;5881;48.522;7.682;2023-04-25T10:03:34;10.40;99.90
11650;DHT22;5881;48.522;7.682;2023-04-25T10:06:01;10.50;99.90
11650;DHT22;5881;48.522;7.682;2023-04-25T10:08:33;10.70;99.90
11650;DHT22;5881;48.522;7.682;2023-04-25T10:11:03;10.90;99.90
11650;DHT22;5881;48.522;7.682;2023-04-25T10:13:30;11.10;99.90
11650;DHT22;5881;48.522;7.682;2023-04-25T10:16:00;11.10;86.40
11650;DHT22;5881;48.522;7.682;2023-04-25T10:18:27;10.90;89.20
11650;DHT22;5881;48.522;7.682;2023-04-25T10:20:58;10.80;99.90
11650;DHT22;5881;48.522;7.682;2023-04-25T10:23:25;10.90;99.90
11650;DHT22;5881;48.522;7.682;2023-04-25T10:25:52;10.70;99.90
11650;DHT22;5881;48.522;7.682;2023-04-25T10:28:18;10.60;99.90
11650;DHT22;5881;48.522;7.682;2023-04-25T10:33:38;10.20;1.00
11650;DHT22;5881;48.522;7.682;2023-04-25T10:36:19;9.80;56.50
11650;DHT22;5881;48.522;7.682;2023-04-25T10:38:45;9.50;1.00
11650;DHT22;5881;48.522;7.682;2023-04-25T10:41:12;9.30;1.00
11650;DHT22;5881;48.522;7.682;2023-04-25T10:43:43;9.00;1.00
11650;DHT22;5881;48.522;7.682;2023-04-25T10:46:28;9.20;1.00
11650;DHT22;5881;48.522;7.682;2023-04-25T10:48:58;9.80;1.00
11650;DHT22;5881;48.522;7.682;2023-04-25T10:51:26;11.30;99.90
11650;DHT22;5881;48.522;7.682;2023-04-25T10:56:22;14.70;99.90
11650;DHT22;5881;48.522;7.682;2023-04-25T10:58:48;15.60;6.60
11650;DHT22;5881;48.522;7.682;2023-04-25T11:01:15;15.70;1.00
11650;DHT22;5881;48.522;7.682;2023-04-25T11:03:44;15.40;1.00
11650;DHT22;5881;48.522;7.682;2023-04-25T11:06:23;14.60;1.00
11650;DHT22;5881;48.522;7.682;2023-04-25T11:08:52;13.80;1.00
11650;DHT22;5881;48.522;7.682;2023-04-25T11:11:18;13.20;1.00
11650;DHT22;5881;48.522;7.682;2023-04-25T11:13:48;13.00;1.00
11650;DHT22;5881;48.522;7.682;2023-04-25T11:16:14;12.00;1.00
11650;DHT22;5881;48.522;7.682;2023-04-25T11:18:46;11.90;1.00
11650;DHT22;5881;48.522;7.682;2023-04-25T11:21:11;10.90;9.90
11650;DHT22;5881;48.522;7.682;2023-04-25T11:23:38;10.80;99.90
11650;DHT22;5881;48.522;7.682;2023-04-25T11:26:04;11.10;99.90
11650;DHT22;5881;48.522;7.682;2023-04-25T11:28:29;11.10;76.10
11650;DHT22;5881;48.522;7.682;2023-04-25T11:30:56;12.40;59.40
11650;DHT22;5881;48.522;7.682;2023-04-25T11:33:25;13.30;18.60
11650;DHT22;5881;48.522;7.682;2023-04-25T11:35:55;14.00;1.40
11650;DHT22;5881;48.522;7.682;2023-04-25T11:38:22;15.10;1.00
11650;DHT22;5881;48.522;7.682;2023-04-25T11:40:52;16.00;1.00
11650;DHT22;5881;48.522;7.682;2023-04-25T11:43:20;15.80;1.00
11650;DHT22;5881;48.522;7.682;2023-04-25T11:45:50;14.70;1.00
11650;DHT22;5881;48.522;7.682;2023-04-25T11:48:17;14.20;1.00
11650;DHT22;5881;48.522;7.682;2023-04-25T11:50:42;14.40;1.00
11650;DHT22;5881;48.522;7.682;2023-04-25T11:53:08;14.60;1.00
11650;DHT22;5881;48.522;7.682;2023-04-25T11:55:34;15.20;1.00
11650;DHT22;5881;48.522;7.682;2023-04-25T11:58:00;15.90;1.00
11650;DHT22;5881;48.522;7.682;2023-04-25T12:00:26;16.50;1.00
11650;DHT22;5881;48.522;7.682;2023-04-25T12:02:56;15.50;1.00
11650;DHT22;5881;48.522;7.682;2023-04-25T12:05:30;15.30;1.00
11650;DHT22;5881;48.522;7.682;2023-04-25T12:08:09;15.00;1.00
11650;DHT22;5881;48.522;7.682;2023-04-25T12:10:38;14.70;1.00
11650;DHT22;5881;48.522;7.682;2023-04-25T12:13:25;14.00;1.00
11650;DHT22;5881;48.522;7.682;2023-04-25T12:15:54;13.90;1.00
11650;DHT22;5881;48.522;7.682;2023-04-25T12:18:23;13.60;1.00
11650;DHT22;5881;48.522;7.682;2023-04-25T12:20:49;12.50;1.00
11650;DHT22;5881;48.522;7.682;2023-04-25T12:23:15;10.50;99.90
11650;DHT22;5881;48.522;7.682;2023-04-25T12:25:42;10.00;44.40
11650;DHT22;5881;48.522;7.682;2023-04-25T12:28:15;9.90;1.00
11650;DHT22;5881;48.522;7.682;2023-04-25T12:33:20;9.80;99.90
11650;DHT22;5881;48.522;7.682;2023-04-25T12:35:47;10.30;1.00
11650;DHT22;5881;48.522;7.682;2023-04-25T12:38:21;10.90;1.00
11650;DHT22;5881;48.522;7.682;2023-04-25T12:40:46;11.10;1.00
11650;DHT22;5881;48.522;7.682;2023-04-25T12:43:12;11.90;99.90
11650;DHT22;5881;48.522;7.682;2023-04-25T12:45:38;12.40;99.90
11650;DHT22;5881;48.522;7.682;2023-04-25T12:48:03;12.90;99.90
11650;DHT22;5881;48.522;7.682;2023-04-25T12:50:29;12.50;99.90
11650;DHT22;5881;48.522;7.682;2023-04-25T12:52:54;12.80;99.90
11650;DHT22;5881;48.522;7.682;2023-04-25T12:55:20;12.60;99.90
11650;DHT22;5881;48.522;7.682;2023-04-25T12:57:46;11.90;99.90
11650;DHT22;5881;48.522;7.682;2023-04-25T13:00:12;11.90;99.90
11650;DHT22;5881;48.522;7.682;2023-04-25T13:02:40;12.30;99.90
11650;DHT22;5881;48.522;7.682;2023-04-25T13:05:06;12.10;99.90
11650;DHT22;5881;48.522;7.682;2023-04-25T13:07:32;11.80;99.90
11650;DHT22;5881;48.522;7.682;2023-04-25T13:09:57;11.50;99.90
11650;DHT22;5881;48.522;7.682;2023-04-25T13:12:23;11.30;99.90
11650;DHT22;5881;48.522;7.682;2023-04-25T13:14:48;11.30;99.90
11650;DHT22;5881;48.522;7.682;2023-04-25T13:17:14;11.30;99.90
11650;DHT22;5881;48.522;7.682;2023-04-25T13:19:39;11.30;99.90
11650;DHT22;5881;48.522;7.682;2023-04-25T13:22:05;11.30;99.90
11650;DHT22;5881;48.522;7.682;2023-04-25T13:24:31;11.40;99.90
11650;DHT22;5881;48.522;7.682;2023-04-25T13:26:56;11.70;99.90
11650;DHT22;5881;48.522;7.682;2023-04-25T13:29:22;11.60;99.40
11650;DHT22;5881;48.522;7.682;2023-04-25T13:31:48;11.20;96.60
11650;DHT22;5881;48.522;7.682;2023-04-25T13:34:13;11.40;99.90
11650;DHT22;5881;48.522;7.682;2023-04-25T13:36:39;11.40;99.90
11650;DHT22;5881;48.522;7.682;2023-04-25T13:39:04;11.50;99.90
11650;DHT22;5881;48.522;7.682;2023-04-25T13:41:30;12.30;99.90
11650;DHT22;5881;48.522;7.682;2023-04-25T13:43:56;12.70;99.90
11650;DHT22;5881;48.522;7.682;2023-04-25T13:46:26;12.70;99.90
11650;DHT22;5881;48.522;7.682;2023-04-25T13:48:52;12.70;99.90
11650;DHT22;5881;48.522;7.682;2023-04-25T13:51:17;12.50;99.90
11650;DHT22;5881;48.522;7.682;2023-04-25T13:53:43;12.50;99.90
11650;DHT22;5881;48.522;7.682;2023-04-25T13:56:10;12.40;95.30
11650;DHT22;5881;48.522;7.682;2023-04-25T13:58:37;12.40;91.80
11650;DHT22;5881;48.522;7.682;2023-04-25T14:01:03;12.40;99.90
11650;DHT22;5881;48.522;7.682;2023-04-25T14:03:29;12.20;71.30
11650;DHT22;5881;48.522;7.682;2023-04-25T14:05:55;12.30;49.90
11650;DHT22;5881;48.522;7.682;2023-04-25T14:08:21;12.40;46.30
11650;DHT22;5881;48.522;7.682;2023-04-25T14:10:46;12.70;40.00
11650;DHT22;5881;48.522;7.682;2023-04-25T14:13:12;12.50;14.50
11650;DHT22;5881;48.522;7.682;2023-04-25T14:15:37;12.90;21.30
11650;DHT22;5881;48.522;7.682;2023-04-25T14:18:03;12.60;17.70
11650;DHT22;5881;48.522;7.682;2023-04-25T14:20:29;12.30;2.50
11650;DHT22;5881;48.522;7.682;2023-04-25T14:22:55;12.00;3.40
11650;DHT22;5881;48.522;7.682;2023-04-25T14:25:22;11.90;13.60
11650;DHT22;5881;48.522;7.682;2023-04-25T14:27:48;11.90;7.40
11650;DHT22;5881;48.522;7.682;2023-04-25T14:30:19;12.00;4.10
11650;DHT22;5881;48.522;7.682;2023-04-25T14:32:45;12.30;5.00
11650;DHT22;5881;48.522;7.682;2023-04-25T14:35:11;12.10;1.00
11650;DHT22;5881;48.522;7.682;2023-04-25T14:37:37;12.10;1.00
11650;DHT22;5881;48.522;7.682;2023-04-25T14:40:03;12.30;1.00
11650;DHT22;5881;48.522;7.682;2023-04-25T14:42:30;12.10;1.00
11650;DHT22;5881;48.522;7.682;2023-04-25T14:44:55;12.10;1.00
11650;DHT22;5881;48.522;7.682;2023-04-25T14:47:21;12.40;1.00
11650;DHT22;5881;48.522;7.682;2023-04-25T14:49:47;12.60;1.00
11650;DHT22;5881;48.522;7.682;2023-04-25T14:52:19;12.30;1.00
11650;DHT22;5881;48.522;7.682;2023-04-25T14:54:45;12.40;1.00
11650;DHT22;5881;48.522;7.682;2023-04-25T14:57:11;12.10;1.00
11650;DHT22;5881;48.522;7.682;2023-04-25T14:59:37;12.10;1.00
11650;DHT22;5881;48.522;7.682;2023-04-25T15:02:03;12.60;1.00
11650;DHT22;5881;48.522;7.682;2023-04-25T15:04:28;12.00;1.00
11650;DHT22;5881;48.522;7.682;2023-04-25T15:06:54;11.80;1.00
11650;DHT22;5881;48.522;7.682;2023-04-25T15:09:20;11.60;1.00
11650;DHT22;5881;48.522;7.682;2023-04-25T15:11:45;11.70;1.00
11650;DHT22;5881;48.522;7.682;2023-04-25T15:14:11;11.50;1.00
11650;DHT22;5881;48.522;7.682;2023-04-25T15:16:36;11.70;1.00
11650;DHT22;5881;48.522;7.682;2023-04-25T15:19:02;11.60;1.00
11650;DHT22;5881;48.522;7.682;2023-04-25T15:21:31;11.50;1.00
11650;DHT22;5881;48.522;7.682;2023-04-25T15:23:57;11.80;1.00
11650;DHT22;5881;48.522;7.682;2023-04-25T15:26:22;11.80;1.00
11650;DHT22;5881;48.522;7.682;2023-04-25T15:28:48;11.70;1.00
11650;DHT22;5881;48.522;7.682;2023-04-25T15:31:14;11.80;1.00
11650;DHT22;5881;48.522;7.682;2023-04-25T15:33:39;11.70;2.10
11650;DHT22;5881;48.522;7.682;2023-04-25T15:36:05;11.40;16.50
11650;DHT22;5881;48.522;7.682;2023-04-25T15:38:31;11.00;95.30
11650;DHT22;5881;48.522;7.682;2023-04-25T15:40:57;10.90;99.90
11650;DHT22;5881;48.522;7.682;2023-04-25T15:43:22;10.70;99.90
11650;DHT22;5881;48.522;7.682;2023-04-25T15:45:48;10.80;1.00
11650;DHT22;5881;48.522;7.682;2023-04-25T15:48:14;10.70;1.00
11650;DHT22;5881;48.522;7.682;2023-04-25T15:50:40;10.60;1.00
11650;DHT22;5881;48.522;7.682;2023-04-25T15:53:06;10.60;99.90
11650;DHT22;5881;48.522;7.682;2023-04-25T15:55:31;10.30;99.90
11650;DHT22;5881;48.522;7.682;2023-04-25T15:57:58;10.40;1.00
11650;DHT22;5881;48.522;7.682;2023-04-25T16:00:24;10.40;1.00
11650;DHT22;5881;48.522;7.682;2023-04-25T16:02:49;10.30;1.00
11650;DHT22;5881;48.522;7.682;2023-04-25T16:05:15;10.30;1.00
11650;DHT22;5881;48.522;7.682;2023-04-25T16:07:43;10.10;1.00